CheckWX is a tool to help pilots better visualize weather data.  It is not intended as a substitute for an official pre-flight weather briefing.

05:46:43 UTC

KALB TAF
Albany International Airport
Albany, New York, USA
KALB 220530Z 2206/2306 18005KT P6SM SKC WS020/28035KT FM221400 27012G22KT P6SM FEW040 FM230000 21005KT P6SM SKC

Feb-22@
06:00 UTC

Feb-22 @ 06:00 UTC

Feb-22@
14:00 UTC

Feb-22 @ 14:00 UTC

KALB 220530Z 2206/2306 18005KT P6SM SKC WS020/28035KT
Wind
  • 180° at 5 KTS
Cloud Levels
  • Clear skies

Feb-22@
14:00 UTC

Feb-22 @ 14:00 UTC

Feb-23@
00:00 UTC

Feb-23 @ 00:00 UTC

FM221400 27012G22KT P6SM FEW040

From

From Standard forecast or significant change

Wind
  • 270° at 12 KTS
  • {Gusting to 22 KTS
Cloud Levels
  • Few at 4,000' AGL

Feb-23@
00:00 UTC

Feb-23 @ 00:00 UTC

Feb-23@
06:00 UTC

Feb-23 @ 06:00 UTC

FM230000 21005KT P6SM SKC

From

From Standard forecast or significant change

Wind
  • 210° at 5 KTS
Cloud Levels
  • Clear skies